Detalii statie FLORA ARNO ARAD [00001998]

Toti senzorii

Date Temperatura solului [C]Precipitatii [mm]Voltaj baterie [mV]Leaf Wetness [Min]HC Air temperature [C]HC Relative humidity [%]Punctul de roua [C]
medieminmaxsumaultimatimpmedieminmaxmediemediemin
2020-01-21 22:00:00 2.3 2.2 2.6 0 6972 -1.26 -1.39 -1.03 100 -1.1 -1.2
2020-01-21 23:00:00 2.3 2.1 2.4 0 6962 -1.46 -1.62 -1.32 100 -1.3 -1.5
2020-01-22 00:00:00 2.3 2.1 2.5 0 6962 -1.58 -1.77 -1.41 100 -1.4 -1.6
2020-01-22 01:00:00 2.3 2.1 2.4 0 6952 -1.71 -1.86 -1.61 100 -1.5 -1.7
2020-01-22 02:00:00 2.2 2 2.4 0 6952 -1.65 -1.77 -1.49 100 -1.5 -1.6
2020-01-22 03:00:00 2.2 2 2.3 0 6942 -1.37 -1.49 -1.25 100 -1.2 -1.3
2020-01-22 04:00:00 2.1 2 2.3 0 6952 -1.17 -1.26 -1.09 100 -1 -1.1
2020-01-22 05:00:00 2 1.9 2.3 0 6952 -1.03 -1.09 -0.99 100 -0.8 -0.9
2020-01-22 06:00:00 2 1.8 2.2 0 6932 -0.98 -1.01 -0.93 100 -0.8 -0.9
2020-01-22 07:00:00 2 1.9 2.2 0 6942 -0.94 -1 -0.88 100 -0.7 -0.9
2020-01-22 08:00:00 2.1 2 2.2 0 6932 -0.82 -0.91 -0.64 100 -0.6 -0.8
2020-01-22 09:00:00 2 1.9 2.2 0 6932 -0.58 -0.68 -0.46 100 -0.4 -0.5
2020-01-22 10:00:00 2.1 1.9 2.3 0 6962 -0.11 -0.42 0.13 100 0 -0.3
2020-01-22 11:00:00 2 2 2.2 0 7010 0.23 0.07 0.3 100 0.1 0
2020-01-22 12:00:00 2.1 2 2.2 0 7050 0.58 0.48 0.8 100 0.5 0.4
2020-01-22 13:00:00 2.1 1.9 2.3 0 7128 0.69 0.54 0.89 100 0.6 0.5
2020-01-22 14:00:00 2.3 2.1 2.5 0 7382 1.19 0.91 1.69 100 1.1 0.9
2020-01-22 15:00:00 2.4 2.2 2.6 0 7236 1.07 0.66 1.59 100 1 0.6
2020-01-22 16:00:00 2.6 2.3 2.8 0 7206 1.07 0.75 1.49 100 1 0.7
2020-01-22 17:00:00 2.6 2.4 2.8 0 7098 0.83 0.7 0.96 100 0.7 0.7
2020-01-22 18:00:00 2.7 2.7 2.8 0 7040 0.17 -0.05 0.59 100 0.1 0
2020-01-22 19:00:00 2.7 2.5 2.8 0 7010 -0.18 -0.35 -0.06 100 0 -0.2
2020-01-22 20:00:00 2.7 2.6 2.8 0 6982 -0.33 -0.37 -0.32 100 -0.2 -0.2
2020-01-22 21:00:00 2.6 2.4 2.8 0 6992 -0.36 -0.39 -0.34 100 -0.2 -0.2
2020-01-22 22:00:00 2.6 2.6 2.7 0 6982 -0.4 -0.44 -0.33 100 -0.2 -0.3
2020-01-22 23:00:00 2.5 2.3 2.7 0 6972 -0.43 -0.49 -0.42 100 -0.3 -0.3
2020-01-23 00:00:00 2.4 2.3 2.6 0 6952 -0.51 -0.55 -0.48 100 -0.3 -0.4
2020-01-23 01:00:00 2.4 2.1 2.6 0 6952 -0.79 -1.58 -0.45 100 -0.6 -1.4
2020-01-23 02:00:00 2.4 2.2 2.5 0 6952 -2.1 -2.37 -1.67 100 -1.9 -2.2
2020-01-23 03:00:00 2.3 2.2 2.5 0 6952 -2.79 -3.22 -2.51 100 -2.6 -3.1
2020-01-23 04:00:00 2.2 2.1 2.4 0 6942 -3.27 -3.59 -3.06 100 -3.1 -3.4
2020-01-23 05:00:00 2.1 2 2.4 0 6942 -3.71 -4.27 -3.43 100 -3.5 -4.1
2020-01-23 06:00:00 2.1 1.9 2.3 0 6914 -3.44 -3.65 -3.33 100 -3.3 -3.5
2020-01-23 07:00:00 2 1.8 2.2 0 6932 -2.94 -3.31 -2.66 100 -2.8 -3.2
2020-01-23 08:00:00 1.9 1.9 2.2 0 6914 -2.47 -2.63 -2.4 100 -2.3 -2.5
2020-01-23 09:00:00 1.9 1.8 2.1 0 6952 -2.6 -3.02 -2.35 100 -2.4 -2.9
2020-01-23 10:00:00 1.8 1.7 2 0 7236 -2.49 -2.94 -1.91 100 -2.3 -2.8
2020-01-23 11:00:00 1.8 1.7 2 0 7274 -1.28 -1.67 -1.03 100 -1.1 -1.5
2020-01-23 12:00:00 1.7 1.7 2 0 7392 0.06 -1.05 0.75 100 0 -0.9
2020-01-23 13:00:00 1.8 1.7 2 0 7402 1.61 0.83 2.4 100 1.5 0.8
2020-01-23 14:00:00 1.9 1.8 2.2 0 7392 2.9 2.39 3.91 100 2.8 2.3
2020-01-23 15:00:00 2.2 2 2.4 0 7392 3.86 3.43 4.32 100 3.8 3.4
2020-01-23 16:00:00 2.5 2.3 2.6 0 7352 4.35 3.97 4.68 100 4.2 3.9
2020-01-23 17:00:00 2.5 2.3 2.8 0 7166 3.32 2.55 3.99 100 3.2 2.5
2020-01-23 18:00:00 2.6 2.4 2.8 0 7080 1.45 0.04 2.5 100 1.4 0
2020-01-23 19:00:00 2.7 2.6 2.8 0 7030 -0.71 -0.98 -0.16 100 -0.5 -0.8